Time;durP1;ratioP1;P1;durP2;ratioP2;P2;SDS_P1;SDS_P2;PMS_P1;PMS_P2;Temp;Humidity;BMP_temperature;BMP_pressure;BME280_temperature;BME280_humidity;BME280_pressure;Samples;Min_cycle;Max_cycle;Signal;HPM_P1;HPM_P2
2022/10/31 00:01:00;;;;;;;;;;;;;;;13.27;82.08;101961.47;5108345;28;19931;-71
2022/10/31 00:03:27;;;;;;;;;;;;;;;13.20;82.14;101964.25;5105257;28;19924;-71
2022/10/31 00:05:54;;;;;;;;;;;;;;;13.16;82.14;101967.03;5110453;28;19931;-71
2022/10/31 00:08:21;;;;;;;;;;;;;;;13.10;82.24;101978.63;5109430;28;20380;-71
2022/10/31 00:10:48;;;;;;;;;;;;;;;13.06;82.22;101976.94;5105443;28;20710;-71
2022/10/31 00:13:15;;;;;;;;;;;;;;;13.00;82.41;101977.09;5102361;28;19928;-71
2022/10/31 00:15:42;;;;;;;;;;;;;;;12.93;82.34;101973.69;5106221;28;19928;-71
2022/10/31 00:18:10;;;;;;;;;;;;;;;12.87;82.42;101971.19;5106257;28;19932;-71
2022/10/31 00:20:38;;;;;;;;;;;;;;;12.82;82.46;101970.41;5108608;28;20469;-71
2022/10/31 00:23:06;;;;;;;;;;;;;;;12.74;82.37;101968.81;5110576;28;20401;-71
2022/10/31 00:25:37;;;;;;;;;;;;;;;12.71;82.57;101973.31;5098547;28;19925;-71
2022/10/31 00:28:06;;;;;;;;;;;;;;;12.64;82.63;101967.25;5101304;28;19973;-71
2022/10/31 00:30:33;;;;;;;;;;;;;;;12.61;82.88;101974.41;5106517;27;19928;-73
2022/10/31 00:33:02;;;;;;;;;;;;;;;12.56;82.83;101972.72;5096813;28;20788;-73
2022/10/31 00:35:31;;;;;;;;;;;;;;;12.52;83.01;101975.44;5110366;28;19924;-70
2022/10/31 00:37:59;;;;;;;;;;;;;;;12.45;83.01;101977.34;5108655;28;19924;-70
2022/10/31 00:40:26;;;;;;;;;;;;;;;12.40;83.24;101974.78;5104561;28;20402;-70
2022/10/31 00:42:54;;;;;;;;;;;;;;;12.34;83.61;101972.28;5101917;28;19928;-70
2022/10/31 00:45:21;;;;;;;;;;;;;;;12.30;84.05;101969.72;5095446;28;19975;-70
2022/10/31 00:47:48;;;;;;;;;;;;;;;12.23;84.08;101968.97;5098836;28;19931;-70
2022/10/31 00:50:15;;;;;;;;;;;;;;;12.17;84.01;101964.66;5101120;28;20511;-70
2022/10/31 00:52:42;;;;;;;;;;;;;;;12.11;84.02;101959.47;5102473;28;20048;-70
2022/10/31 00:55:09;;;;;;;;;;;;;;;12.05;84.11;101960.50;5093097;28;20422;-69
2022/10/31 00:57:36;;;;;;;;;;;;;;;12.00;84.07;101959.69;5123206;27;19924;-70
2022/10/31 01:00:05;;;;;;;;;;;;;;;11.94;84.22;101959.78;5100449;28;19924;-70
2022/10/31 01:02:33;;;;;;;;;;;;;;;11.90;84.56;101961.63;5101662;28;20418;-70
2022/10/31 01:05:00;;;;;;;;;;;;;;;11.85;85.24;101955.53;5105797;28;19928;-70
2022/10/31 01:07:27;;;;;;;;;;;;;;;11.80;85.77;101958.25;5114760;28;19924;-71
2022/10/31 01:09:58;;;;;;;;;;;;;;;11.75;85.73;101956.59;5114223;28;19924;-70
2022/10/31 01:12:28;;;;;;;;;;;;;;;11.72;85.69;101968.09;5129019;27;20669;-70
2022/10/31 01:14:56;;;;;;;;;;;;;;;11.69;85.88;101967.28;5099981;28;19928;-70
2022/10/31 01:17:23;;;;;;;;;;;;;;;11.65;86.17;101962.03;5111606;28;19931;-70
2022/10/31 01:19:50;;;;;;;;;;;;;;;11.65;86.11;101958.50;5111679;27;20713;-70
2022/10/31 01:22:17;;;;;;;;;;;;;;;11.63;85.87;101957.69;5113527;28;20409;-70
2022/10/31 01:24:44;;;;;;;;;;;;;;;11.60;85.89;101949.78;5097800;28;20389;-70
2022/10/31 01:27:11;;;;;;;;;;;;;;;11.56;85.77;101954.25;5112519;28;20380;-71
2022/10/31 01:29:41;;;;;;;;;;;;;;;11.53;85.85;101969.28;5110083;28;19923;-71
2022/10/31 01:32:08;;;;;;;;;;;;;;;11.50;85.85;101964.91;5114473;28;20000;-70
2022/10/31 01:34:35;;;;;;;;;;;;;;;11.48;85.89;101972.00;5111891;28;20416;-70
2022/10/31 01:37:03;;;;;;;;;;;;;;;11.49;85.93;101973.75;5102668;28;19935;-70
2022/10/31 01:39:31;;;;;;;;;;;;;;;11.48;86.19;101974.66;5101009;28;19930;-72
2022/10/31 01:42:00;;;;;;;;;;;;;;;11.48;86.43;101969.38;5098805;28;19924;-71
2022/10/31 01:44:27;;;;;;;;;;;;;;;11.45;87.28;101951.78;5101231;28;19946;-72
2022/10/31 01:47:41;;;;;;;;;;;;;;;11.44;87.34;101939.50;5106659;27;19928;-70
2022/10/31 01:50:22;;;;;;;;;;;;;;;11.40;87.12;101937.81;5098570;28;19928;-71
2022/10/31 01:52:50;;;;;;;;;;;;;;;11.39;86.98;101940.47;5105365;28;19931;-71
2022/10/31 01:55:27;;;;;;;;;;;;;;;11.36;86.97;101948.44;5094388;28;19931;-71
2022/10/31 01:58:04;;;;;;;;;;;;;;;11.32;86.69;101944.97;5124016;27;19931;-71
2022/10/31 02:00:32;;;;;;;;;;;;;;;11.31;86.83;101952.00;5100314;28;19928;-71
2022/10/31 02:02:59;;;;;;;;;;;;;;;11.32;86.75;101953.75;5107258;28;20462;-71
2022/10/31 02:05:29;;;;;;;;;;;;;;;11.33;86.66;101955.50;5104144;28;19925;-69
2022/10/31 02:08:33;;;;;;;;;;;;;;;11.33;86.58;101954.63;5100997;28;19954;-69
2022/10/31 02:11:01;;;;;;;;;;;;;;;11.32;87.15;101956.38;5098906;28;19931;-70
2022/10/31 02:13:29;;;;;;;;;;;;;;;11.28;87.55;101954.72;5110902;28;19967;-70
2022/10/31 02:15:58;;;;;;;;;;;;;;;11.26;87.62;101963.53;5106398;28;19932;-71
2022/10/31 02:18:30;;;;;;;;;;;;;;;11.25;87.35;101967.06;5096586;27;20019;-71
2022/10/31 02:21:04;;;;;;;;;;;;;;;11.24;87.20;101970.63;5104375;27;19930;-71
2022/10/31 02:23:45;;;;;;;;;;;;;;;11.24;87.08;101976.75;5108376;28;19971;-71
2022/10/31 02:26:41;;;;;;;;;;;;;;;11.25;87.03;101972.34;5099760;28;20728;-71
2022/10/31 02:29:35;;;;;;;;;;;;;;;11.25;87.23;101962.66;5105857;28;19985;-70
2022/10/31 02:32:26;;;;;;;;;;;;;;;11.23;87.13;101959.19;5097695;28;19924;-71
2022/10/31 02:35:20;;;;;;;;;;;;;;;11.21;87.23;101953.03;5105064;28;19924;-70
2022/10/31 02:38:06;;;;;;;;;;;;;;;11.18;87.51;101963.66;5110587;28;19935;-70
2022/10/31 02:40:59;;;;;;;;;;;;;;;11.14;87.72;101962.81;5098407;28;20336;-70
2022/10/31 02:44:17;;;;;;;;;;;;;;;11.10;87.70;101953.22;5083003;28;19924;-70
2022/10/31 02:46:52;;;;;;;;;;;;;;;11.07;87.61;101955.88;5102682;28;19930;-69
2022/10/31 02:49:28;;;;;;;;;;;;;;;11.04;87.43;101955.94;5100597;28;19935;-70
2022/10/31 02:51:55;;;;;;;;;;;;;;;11.00;87.26;101949.81;5104121;28;19931;-70
2022/10/31 02:54:25;;;;;;;;;;;;;;;10.99;87.19;101952.50;5100389;28;20022;-70
2022/10/31 02:57:06;;;;;;;;;;;;;;;10.97;87.12;101949.91;5110774;28;19931;-70
2022/10/31 02:59:36;;;;;;;;;;;;;;;10.97;87.04;101951.63;5101945;28;19967;-71
2022/10/31 03:02:24;;;;;;;;;;;;;;;10.97;86.83;101949.00;5125090;27;19928;-71
2022/10/31 03:05:07;;;;;;;;;;;;;;;10.96;86.89;101950.78;5099157;28;19924;-70
2022/10/31 03:07:57;;;;;;;;;;;;;;;10.94;86.85;101949.94;5102385;28;20417;-70
2022/10/31 03:10:48;;;;;;;;;;;;;;;10.93;86.66;101952.59;5110528;28;19931;-71
2022/10/31 03:13:29;;;;;;;;;;;;;;;10.91;86.68;101951.75;5115830;27;19986;-70
2022/10/31 03:16:16;;;;;;;;;;;;;;;10.87;86.55;101949.13;5099713;28;19931;-70
2022/10/31 03:19:00;;;;;;;;;;;;;;;10.84;86.70;101948.31;5105504;28;19923;-70
2022/10/31 03:21:42;;;;;;;;;;;;;;;10.81;86.74;101946.59;5095789;28;19924;-70
2022/10/31 03:24:11;;;;;;;;;;;;;;;10.81;86.79;101949.22;5112061;28;19923;-72
2022/10/31 03:26:47;;;;;;;;;;;;;;;10.79;86.81;101950.13;5100194;27;19934;-72
2022/10/31 03:29:20;;;;;;;;;;;;;;;10.78;86.82;101938.72;5107646;28;19930;-71
2022/10/31 03:32:23;;;;;;;;;;;;;;;10.78;86.93;101945.78;5122305;27;19950;-71
2022/10/31 03:34:55;;;;;;;;;;;;;;;10.77;86.95;101942.25;5087309;28;19924;-70
2022/10/31 03:37:27;;;;;;;;;;;;;;;10.76;87.08;101952.81;5103950;27;19927;-71
2022/10/31 03:39:56;;;;;;;;;;;;;;;10.74;87.59;101944.06;5109883;27;19924;-71
2022/10/31 03:42:26;;;;;;;;;;;;;;;10.71;87.90;101944.97;5108493;28;19924;-72
2022/10/31 03:44:59;;;;;;;;;;;;;;;10.68;88.11;101948.50;5099816;28;20017;-70
2022/10/31 03:47:28;;;;;;;;;;;;;;;10.66;88.26;101949.41;5105105;28;19924;-74
2022/10/31 03:49:56;;;;;;;;;;;;;;;10.63;88.61;101949.47;5104622;28;20010;-74
2022/10/31 03:52:28;;;;;;;;;;;;;;;10.62;88.80;101953.00;5109750;28;20404;-74
2022/10/31 03:55:10;;;;;;;;;;;;;;;10.60;89.21;101949.50;5108532;28;20420;-73
2022/10/31 03:57:45;;;;;;;;;;;;;;;10.58;89.25;101954.81;5104065;27;19924;-74
2022/10/31 04:00:16;;;;;;;;;;;;;;;10.57;89.14;101950.44;5097735;28;19971;-74
2022/10/31 04:02:55;;;;;;;;;;;;;;;10.56;89.19;101957.44;5105747;28;19924;-73
2022/10/31 04:05:23;;;;;;;;;;;;;;;10.53;89.14;101953.97;5105893;28;21917;-70
2022/10/31 04:07:55;;;;;;;;;;;;;;;10.49;88.88;101961.06;5092383;28;19924;-70
2022/10/31 04:10:24;;;;;;;;;;;;;;;10.45;88.90;101955.84;5101256;28;19930;-70
2022/10/31 04:13:07;;;;;;;;;;;;;;;10.39;88.79;101951.53;5102572;28;19935;-70
2022/10/31 04:15:45;;;;;;;;;;;;;;;10.33;88.93;101954.16;5109548;28;20410;-70
2022/10/31 04:18:12;;;;;;;;;;;;;;;10.29;89.26;101952.47;5096299;28;19942;-70
2022/10/31 04:20:41;;;;;;;;;;;;;;;10.21;89.51;101953.44;5118613;27;19931;-70
2022/10/31 04:23:24;;;;;;;;;;;;;;;10.15;89.47;101953.50;5100261;27;19928;-70
2022/10/31 04:25:51;;;;;;;;;;;;;;;10.10;89.14;101955.31;5106408;28;19947;-70
2022/10/31 04:28:18;;;;;;;;;;;;;;;10.05;89.23;101950.09;5093169;28;20010;-70
2022/10/31 04:30:51;;;;;;;;;;;;;;;10.01;89.19;101947.50;5103800;28;19924;-70
2022/10/31 04:33:17;;;;;;;;;;;;;;;9.95;89.10;101954.56;5103175;28;20009;-70
2022/10/31 04:35:47;;;;;;;;;;;;;;;9.92;89.01;101946.69;5096553;28;19929;-70
2022/10/31 04:38:14;;;;;;;;;;;;;;;9.89;88.90;101946.75;5109723;28;19924;-70
2022/10/31 04:40:42;;;;;;;;;;;;;;;9.84;88.90;101942.41;5110366;28;20095;-70
2022/10/31 04:43:29;;;;;;;;;;;;;;;9.84;89.33;101951.16;5101799;27;19997;-69
2022/10/31 04:45:59;;;;;;;;;;;;;;;9.87;89.89;101947.66;5098387;28;19928;-71
2022/10/31 04:48:26;;;;;;;;;;;;;;;9.90;90.07;101951.13;5119750;27;20010;-72
2022/10/31 04:51:01;;;;;;;;;;;;;;;9.93;90.46;101952.84;5096819;28;20649;-72
2022/10/31 04:53:28;;;;;;;;;;;;;;;9.96;90.54;101947.56;5095662;28;20359;-70
2022/10/31 04:56:15;;;;;;;;;;;;;;;10.01;90.79;101943.09;5099565;28;19932;-69
2022/10/31 04:58:46;;;;;;;;;;;;;;;10.04;90.82;101944.81;5094270;28;19932;-69
2022/10/31 05:01:13;;;;;;;;;;;;;;;10.06;91.04;101935.16;5103370;27;19923;-71
2022/10/31 05:03:40;;;;;;;;;;;;;;;10.08;91.18;101936.00;5106378;28;19963;-71
2022/10/31 05:06:07;;;;;;;;;;;;;;;10.10;91.06;101931.59;5107955;28;19924;-71
2022/10/31 05:08:37;;;;;;;;;;;;;;;10.15;91.00;101926.28;5103164;28;19951;-71
2022/10/31 05:11:06;;;;;;;;;;;;;;;10.18;91.02;101926.22;5103097;28;20397;-72
2022/10/31 05:13:34;;;;;;;;;;;;;;;10.20;90.82;101927.97;5108152;28;20412;-71
2022/10/31 05:16:20;;;;;;;;;;;;;;;10.21;90.59;101918.28;5109589;28;19931;-71
2022/10/31 05:19:07;;;;;;;;;;;;;;;10.20;90.45;101922.72;5104819;28;19925;-70
2022/10/31 05:21:55;;;;;;;;;;;;;;;10.18;90.25;101926.22;5098566;28;19924;-70
2022/10/31 05:24:23;;;;;;;;;;;;;;;10.14;90.30;101928.03;5108406;28;19928;-71
2022/10/31 05:26:50;;;;;;;;;;;;;;;10.12;90.04;101932.47;5098080;28;19924;-70
2022/10/31 05:29:17;;;;;;;;;;;;;;;10.09;90.06;101930.72;5097784;28;19924;-71
2022/10/31 05:31:44;;;;;;;;;;;;;;;10.06;89.73;101929.88;5102457;27;20334;-69
2022/10/31 05:34:28;;;;;;;;;;;;;;;10.01;89.74;101929.06;5097218;27;19928;-69
2022/10/31 05:37:18;;;;;;;;;;;;;;;9.95;89.62;101925.59;5106439;27;19924;-69
2022/10/31 05:39:45;;;;;;;;;;;;;;;9.92;89.51;101927.41;5111685;27;20390;-69
2022/10/31 05:42:15;;;;;;;;;;;;;;;9.89;89.58;101919.50;5107251;28;20412;-69
2022/10/31 05:44:42;;;;;;;;;;;;;;;9.84;89.42;101914.28;5099486;27;20381;-69
2022/10/31 05:47:20;;;;;;;;;;;;;;;9.82;89.79;101912.56;5095923;28;20002;-69
2022/10/31 05:50:08;;;;;;;;;;;;;;;9.78;89.74;101917.88;5099412;27;20297;-70
2022/10/31 05:53:00;;;;;;;;;;;;;;;9.76;90.00;101914.41;5102435;28;20014;-70
2022/10/31 05:55:34;;;;;;;;;;;;;;;9.77;90.60;101915.25;5111826;28;19927;-70
2022/10/31 05:58:07;;;;;;;;;;;;;;;9.75;90.70;101909.13;5109561;27;19930;-72
2022/10/31 06:00:36;;;;;;;;;;;;;;;9.72;90.84;101915.31;5103624;27;20047;-69
2022/10/31 06:03:11;;;;;;;;;;;;;;;9.70;90.84;101909.16;5105422;27;19933;-71
2022/10/31 06:05:46;;;;;;;;;;;;;;;9.68;90.65;101910.06;5118280;27;19971;-71
2022/10/31 06:08:20;;;;;;;;;;;;;;;9.66;90.83;101918.00;5108500;27;19924;-70
2022/10/31 06:10:53;;;;;;;;;;;;;;;9.63;90.88;101915.38;5104362;27;19924;-71
2022/10/31 06:13:30;;;;;;;;;;;;;;;9.58;90.61;101911.91;5119247;27;20031;-69
2022/10/31 06:16:03;;;;;;;;;;;;;;;9.56;90.91;101918.97;5106918;27;19924;-69
2022/10/31 06:18:35;;;;;;;;;;;;;;;9.57;91.25;101918.94;5108739;27;20413;-70
2022/10/31 06:21:02;;;;;;;;;;;;;;;9.69;92.18;101925.84;5101226;27;19930;-70
2022/10/31 06:23:31;;;;;;;;;;;;;;;9.74;92.13;101920.53;5104696;27;19924;-70
2022/10/31 06:26:18;;;;;;;;;;;;;;;9.76;92.29;101921.41;5104073;27;19924;-70
2022/10/31 06:28:47;;;;;;;;;;;;;;;9.73;92.06;101918.78;5105390;27;19924;-69
2022/10/31 06:31:37;;;;;;;;;;;;;;;9.68;92.07;101913.56;5109533;27;19924;-70
2022/10/31 06:34:13;;;;;;;;;;;;;;;9.63;92.04;101918.03;5104421;27;19930;-69
2022/10/31 06:36:41;;;;;;;;;;;;;;;9.58;92.00;101917.19;5122066;27;19930;-69
2022/10/31 06:39:08;;;;;;;;;;;;;;;9.54;92.03;101916.34;5104385;27;20651;-69
2022/10/31 06:41:36;;;;;;;;;;;;;;;9.52;92.14;101915.47;5100765;27;19929;-70
2022/10/31 06:44:03;;;;;;;;;;;;;;;9.52;92.09;101911.97;5099689;27;20403;-69
2022/10/31 06:46:53;;;;;;;;;;;;;;;9.52;91.92;101904.94;5110389;27;19930;-69
2022/10/31 06:49:40;;;;;;;;;;;;;;;9.55;91.82;101907.56;5102867;28;19987;-69
2022/10/31 06:52:12;;;;;;;;;;;;;;;9.56;91.87;101909.31;5105552;27;19921;-70
2022/10/31 06:54:39;;;;;;;;;;;;;;;9.62;91.64;101914.50;5105527;27;19930;-70
2022/10/31 06:57:06;;;;;;;;;;;;;;;9.69;91.79;101917.09;5106247;27;20346;-70
2022/10/31 06:59:33;;;;;;;;;;;;;;;9.76;91.81;101922.28;5112114;27;19931;-70
2022/10/31 07:02:14;;;;;;;;;;;;;;;9.85;91.95;101916.03;5119719;27;19926;-70
2022/10/31 07:04:42;;;;;;;;;;;;;;;9.93;91.97;101918.59;5111288;27;19934;-70
2022/10/31 07:07:13;;;;;;;;;;;;;;;10.00;91.85;101919.41;5106805;27;19931;-71
2022/10/31 07:09:40;;;;;;;;;;;;;;;10.07;91.84;101923.72;5101228;27;19923;-70
2022/10/31 07:12:10;;;;;;;;;;;;;;;10.16;91.75;101936.81;5123065;27;19955;-69
2022/10/31 07:14:42;;;;;;;;;;;;;;;10.24;91.66;101932.31;5114332;27;20456;-70
2022/10/31 07:17:10;;;;;;;;;;;;;;;10.32;91.54;101931.38;5104592;27;19924;-70
2022/10/31 07:19:40;;;;;;;;;;;;;;;10.39;91.40;101927.78;5120401;27;20416;-69
2022/10/31 07:22:09;;;;;;;;;;;;;;;10.47;91.31;101922.44;5120968;27;20460;-70
2022/10/31 07:24:37;;;;;;;;;;;;;;;10.54;91.18;101924.94;5129236;27;20022;-70
2022/10/31 07:27:42;;;;;;;;;;;;;;;10.66;91.55;101917.78;5092238;28;20022;-69
2022/10/31 07:30:13;;;;;;;;;;;;;;;10.79;92.15;101924.63;5097948;27;19970;-70
2022/10/31 07:32:42;;;;;;;;;;;;;;;10.94;92.66;101918.25;5119156;27;19931;-70
2022/10/31 07:35:11;;;;;;;;;;;;;;;11.05;93.03;101917.22;5107743;27;19924;-69
2022/10/31 07:37:51;;;;;;;;;;;;;;;11.15;93.24;101918.84;5108845;27;20046;-70
2022/10/31 07:40:19;;;;;;;;;;;;;;;11.25;93.55;101927.47;5100616;27;20054;-69
2022/10/31 07:42:48;;;;;;;;;;;;;;;11.33;94.09;101918.53;5099178;28;20023;-70
2022/10/31 07:45:43;;;;;;;;;;;;;;;11.37;93.74;101922.00;5104596;28;19928;-71
2022/10/31 07:48:29;;;;;;;;;;;;;;;11.43;93.72;101921.03;5096320;28;19946;-70
2022/10/31 07:51:15;;;;;;;;;;;;;;;11.47;93.71;101920.09;5095285;27;20661;-70
2022/10/31 07:54:11;;;;;;;;;;;;;;;11.58;93.81;101922.53;5093399;28;19924;-70
2022/10/31 07:56:37;;;;;;;;;;;;;;;11.66;93.57;101923.25;5096842;28;19931;-69
2022/10/31 07:59:05;;;;;;;;;;;;;;;11.73;93.53;101927.56;5098555;28;19931;-70
2022/10/31 08:01:32;;;;;;;;;;;;;;;11.77;93.60;101931.88;5093864;28;20491;-70
2022/10/31 08:04:31;;;;;;;;;;;;;;;11.85;93.27;101937.03;5121718;27;20054;-70
2022/10/31 08:07:17;;;;;;;;;;;;;;;11.91;93.02;101933.41;5098564;28;20861;-72
2022/10/31 08:09:52;;;;;;;;;;;;;;;12.00;93.03;101929.75;5096792;28;19923;-69
2022/10/31 08:12:23;;;;;;;;;;;;;;;12.10;93.00;101931.34;5102907;27;19931;-72
2022/10/31 08:14:51;;;;;;;;;;;;;;;12.21;92.92;101934.59;5097658;28;19928;-71
2022/10/31 08:17:21;;;;;;;;;;;;;;;12.31;93.02;101931.81;5119776;27;19950;-71
2022/10/31 08:19:55;;;;;;;;;;;;;;;12.41;93.13;101931.56;5099441;28;19924;-69
2022/10/31 08:22:31;;;;;;;;;;;;;;;12.53;93.01;101927.78;5091185;28;19975;-71
2022/10/31 08:24:59;;;;;;;;;;;;;;;12.62;92.89;101926.75;5096435;28;19958;-71
2022/10/31 08:27:27;;;;;;;;;;;;;;;12.72;92.58;101924.75;5103619;28;19924;-71
2022/10/31 08:29:58;;;;;;;;;;;;;;;12.78;92.45;101927.28;5106438;27;20734;-71
2022/10/31 08:32:25;;;;;;;;;;;;;;;12.86;92.51;101924.47;5109624;27;20646;-70
2022/10/31 08:35:11;;;;;;;;;;;;;;;12.96;92.55;101931.28;5106598;28;19967;-69
2022/10/31 08:37:53;;;;;;;;;;;;;;;13.06;92.55;101926.63;5095906;28;19935;-70
2022/10/31 08:40:19;;;;;;;;;;;;;;;13.17;92.42;101929.06;5104074;28;19946;-69
2022/10/31 08:42:46;;;;;;;;;;;;;;;13.27;92.39;101930.56;5090290;28;19924;-70
2022/10/31 08:45:13;;;;;;;;;;;;;;;13.38;92.23;101919.69;5093988;28;20278;-70
2022/10/31 08:47:40;;;;;;;;;;;;;;;13.50;92.25;101913.25;5095201;28;20026;-70
2022/10/31 08:50:08;;;;;;;;;;;;;;;13.57;92.22;101913.97;5110322;27;19924;-70
2022/10/31 08:52:37;;;;;;;;;;;;;;;13.59;92.04;101910.34;5105334;28;20318;-70
2022/10/31 08:55:26;;;;;;;;;;;;;;;13.67;91.94;101902.22;5094683;28;20019;-70
2022/10/31 08:58:09;;;;;;;;;;;;;;;13.76;91.58;101904.63;5099873;28;19946;-70
2022/10/31 09:00:44;;;;;;;;;;;;;;;13.86;91.48;101899.06;5107935;28;19965;-69
2022/10/31 09:03:26;;;;;;;;;;;;;;;13.94;91.23;101886.47;5095292;28;19924;-69
2022/10/31 09:06:00;;;;;;;;;;;;;;;13.98;91.07;101885.47;5106758;27;19931;-71
2022/10/31 09:08:30;;;;;;;;;;;;;;;14.04;91.00;101887.09;5130987;27;19978;-69
2022/10/31 09:10:58;;;;;;;;;;;;;;;14.10;90.85;101893.09;5113372;27;19928;-69
2022/10/31 09:14:00;;;;;;;;;;;;;;;14.10;90.76;101898.41;5097159;28;19928;-69
2022/10/31 09:16:29;;;;;;;;;;;;;;;14.08;90.58;101891.41;5091085;28;19924;-69
2022/10/31 09:18:56;;;;;;;;;;;;;;;14.11;90.60;101891.31;5093115;28;20377;-68
2022/10/31 09:21:24;;;;;;;;;;;;;;;14.17;90.55;101883.19;5107391;28;19970;-69
2022/10/31 09:23:53;;;;;;;;;;;;;;;14.20;90.33;101867.16;5110968;28;19935;-69
2022/10/31 09:26:21;;;;;;;;;;;;;;;14.23;90.05;101859.13;5101108;28;19924;-69
2022/10/31 09:29:13;;;;;;;;;;;;;;;14.23;89.91;101848.53;5093365;28;20007;-69
2022/10/31 09:31:41;;;;;;;;;;;;;;;14.24;90.16;101842.31;5112974;28;20423;-69
2022/10/31 09:34:30;;;;;;;;;;;;;;;14.31;89.99;101829.72;5131450;27;19995;-71
2022/10/31 09:37:05;;;;;;;;;;;;;;;14.37;90.15;101841.94;5113746;28;19931;-69
2022/10/31 09:39:34;;;;;;;;;;;;;;;14.44;89.77;101830.22;5103953;27;19930;-71
2022/10/31 09:42:48;;;;;;;;;;;;;;;14.55;89.61;101836.06;5123417;27;19924;-72
2022/10/31 09:46:10;;;;;;;;;;;;;;;14.72;89.70;101847.97;5127228;27;19931;-72
2022/10/31 09:48:51;;;;;;;;;;;;;;;14.96;89.48;101854.25;5094968;28;20395;-72
2022/10/31 09:51:29;;;;;;;;;;;;;;;15.11;88.88;101850.22;5112679;28;20043;-72
2022/10/31 09:54:10;;;;;;;;;;;;;;;15.19;87.33;101844.66;5112365;28;20369;-71
2022/10/31 09:56:38;;;;;;;;;;;;;;;15.13;87.08;101848.41;5104917;28;20364;-72
2022/10/31 09:59:16;;;;;;;;;;;;;;;15.08;86.93;101847.69;5120079;27;19977;-72
2022/10/31 10:01:50;;;;;;;;;;;;;;;15.07;87.15;101841.50;5106193;28;20006;-71
2022/10/31 10:04:43;;;;;;;;;;;;;;;15.12;87.18;101830.72;5113319;28;19924;-71
2022/10/31 10:07:27;;;;;;;;;;;;;;;15.22;86.65;101820.66;5109325;28;20380;-71
2022/10/31 10:10:49;;;;;;;;;;;;;;;15.33;86.20;101828.25;5108255;27;19924;-72
2022/10/31 10:13:46;;;;;;;;;;;;;;;15.38;86.41;101824.53;5098328;28;19935;-70
2022/10/31 10:16:33;;;;;;;;;;;;;;;15.49;85.85;101817.97;5104017;28;19925;-70
2022/10/31 10:19:15;;;;;;;;;;;;;;;15.55;85.58;101807.13;5103235;28;19923;-69
2022/10/31 10:21:51;;;;;;;;;;;;;;;15.65;84.41;101803.22;5106657;28;19924;-72
2022/10/31 10:24:33;;;;;;;;;;;;;;;15.65;84.34;101800.56;5103339;28;19928;-69
2022/10/31 10:27:13;;;;;;;;;;;;;;;15.75;84.43;101810.84;5099165;27;19924;-70
2022/10/31 10:30:10;;;;;;;;;;;;;;;15.82;84.67;101815.00;5109586;28;20023;-70
2022/10/31 10:33:08;;;;;;;;;;;;;;;15.92;84.38;101816.44;5106013;28;19924;-70
2022/10/31 10:35:42;;;;;;;;;;;;;;;16.04;83.43;101812.44;5110781;27;20396;-71
2022/10/31 10:38:33;;;;;;;;;;;;;;;16.10;83.01;101806.03;5109508;27;20604;-70
2022/10/31 10:41:04;;;;;;;;;;;;;;;16.30;82.54;101791.97;5097911;28;19928;-70
2022/10/31 10:43:37;;;;;;;;;;;;;;;16.48;82.27;101792.16;5109918;28;19977;-70
2022/10/31 10:49:04;;;;;;;;;;;;;;;16.72;80.47;101771.66;5103402;28;19909;-71
2022/10/31 10:51:44;;;;;;;;;;;;;;;16.74;79.42;101761.81;5102753;28;19976;-70
2022/10/31 10:54:43;;;;;;;;;;;;;;;16.70;79.22;101763.72;5103870;28;20499;-70
2022/10/31 10:57:28;;;;;;;;;;;;;;;16.70;79.61;101753.09;5113133;27;19931;-70
2022/10/31 10:59:55;;;;;;;;;;;;;;;16.71;79.60;101745.94;5108183;28;19924;-70
2022/10/31 11:02:25;;;;;;;;;;;;;;;16.72;79.83;101740.59;5104929;28;19927;-70
2022/10/31 11:04:58;;;;;;;;;;;;;;;16.72;79.62;101740.59;5109502;28;19925;-70
2022/10/31 11:07:38;;;;;;;;;;;;;;;16.75;79.67;101728.94;5108401;28;20658;-70
2022/10/31 11:10:13;;;;;;;;;;;;;;;16.76;79.28;101722.69;5109296;27;20389;-70
2022/10/31 11:12:56;;;;;;;;;;;;;;;16.80;79.73;101712.75;5097520;28;19928;-70
2022/10/31 11:15:26;;;;;;;;;;;;;;;16.91;79.82;101719.34;5111581;27;19924;-70
2022/10/31 11:17:55;;;;;;;;;;;;;;;17.04;79.11;101716.19;5110923;28;20365;-70
2022/10/31 11:20:31;;;;;;;;;;;;;;;17.10;79.00;101718.56;5108531;28;20007;-70
2022/10/31 11:23:19;;;;;;;;;;;;;;;17.15;79.58;101716.59;5112685;28;19924;-70
2022/10/31 11:25:56;;;;;;;;;;;;;;;17.25;79.18;101716.16;5101227;28;20803;-71
2022/10/31 11:28:25;;;;;;;;;;;;;;;17.33;78.06;101714.03;5099832;28;19927;-71
2022/10/31 11:30:58;;;;;;;;;;;;;;;17.35;78.15;101709.50;5107911;28;19935;-70
2022/10/31 11:33:34;;;;;;;;;;;;;;;17.39;77.26;101711.94;5103691;28;20339;-72
2022/10/31 11:36:18;;;;;;;;;;;;;;;17.38;77.67;101712.03;5101291;28;19932;-72
2022/10/31 11:38:45;;;;;;;;;;;;;;;17.43;77.50;101711.81;5107449;28;19954;-69
2022/10/31 11:41:16;;;;;;;;;;;;;;;17.45;77.48;101708.16;5096559;28;20532;-70
2022/10/31 11:43:51;;;;;;;;;;;;;;;17.47;77.43;101700.06;5093263;28;20657;-70
2022/10/31 11:46:23;;;;;;;;;;;;;;;17.53;76.14;101686.47;5105989;28;19924;-70
2022/10/31 11:48:53;;;;;;;;;;;;;;;17.50;76.59;101686.59;5100425;27;19928;-70
2022/10/31 11:51:25;;;;;;;;;;;;;;;17.54;75.64;101674.88;5107237;28;19924;-71
2022/10/31 11:53:55;;;;;;;;;;;;;;;17.52;75.97;101663.41;5091778;28;19924;-70
2022/10/31 11:56:39;;;;;;;;;;;;;;;17.62;76.51;101670.06;5090929;28;20019;-71
2022/10/31 11:59:18;;;;;;;;;;;;;;;17.82;75.76;101649.56;5099194;28;19936;-71
2022/10/31 12:01:50;;;;;;;;;;;;;;;18.02;75.56;101650.44;5092597;28;20348;-71
2022/10/31 12:04:18;;;;;;;;;;;;;;;18.17;74.52;101647.00;5101622;28;19924;-70
2022/10/31 12:06:47;;;;;;;;;;;;;;;18.28;73.40;101644.66;5103475;28;19924;-71
2022/10/31 12:09:24;;;;;;;;;;;;;;;18.28;72.66;101635.81;5107766;28;19924;-71
2022/10/31 12:12:24;;;;;;;;;;;;;;;18.28;73.16;101633.97;5111477;28;19928;-72
2022/10/31 12:15:15;;;;;;;;;;;;;;;18.24;73.67;101626.22;5103784;28;19924;-71
2022/10/31 12:17:55;;;;;;;;;;;;;;;18.32;72.92;101616.00;5104187;28;20002;-71
2022/10/31 12:20:46;;;;;;;;;;;;;;;18.23;72.66;101617.34;5091474;28;19924;-69
2022/10/31 12:23:25;;;;;;;;;;;;;;;18.15;73.04;101608.88;5096988;28;19935;-69
2022/10/31 12:26:42;;;;;;;;;;;;;;;18.07;73.92;101595.03;5106566;28;19930;-69
2022/10/31 12:29:38;;;;;;;;;;;;;;;18.06;74.00;101585.34;5091658;28;19928;-70
2022/10/31 12:32:17;;;;;;;;;;;;;;;18.02;74.27;101575.75;5106268;27;19924;-70
2022/10/31 12:34:47;;;;;;;;;;;;;;;17.98;73.64;101567.88;5108222;28;19924;-69
2022/10/31 12:37:40;;;;;;;;;;;;;;;17.93;74.50;101563.69;5103306;28;20010;-70
2022/10/31 12:40:27;;;;;;;;;;;;;;;17.90;74.31;101558.53;5101536;27;19924;-69
2022/10/31 12:43:00;;;;;;;;;;;;;;;17.84;74.88;101546.34;5102734;28;19924;-69
2022/10/31 12:45:46;;;;;;;;;;;;;;;17.80;74.79;101540.31;5103008;28;20037;-70
2022/10/31 12:48:16;;;;;;;;;;;;;;;17.79;75.08;101532.38;5099925;28;20401;-69
2022/10/31 12:50:43;;;;;;;;;;;;;;;17.82;74.73;101525.06;5099601;28;19931;-69
2022/10/31 12:53:26;;;;;;;;;;;;;;;17.83;74.44;101520.63;5108925;28;19927;-70
2022/10/31 12:55:59;;;;;;;;;;;;;;;17.84;74.63;101511.69;5098426;28;19972;-68
2022/10/31 12:58:33;;;;;;;;;;;;;;;17.84;73.92;101509.88;5100412;28;19924;-69
2022/10/31 13:01:15;;;;;;;;;;;;;;;17.77;74.64;101508.47;5101862;28;19927;-69
2022/10/31 13:03:57;;;;;;;;;;;;;;;17.78;74.23;101512.84;5112045;28;19923;-69
2022/10/31 13:06:33;;;;;;;;;;;;;;;17.75;73.91;101498.81;5101676;28;19923;-69
2022/10/31 13:09:07;;;;;;;;;;;;;;;17.72;73.67;101497.16;5103377;28;19930;-69
2022/10/31 13:11:40;;;;;;;;;;;;;;;17.65;74.05;101491.25;5115064;27;19928;-71
2022/10/31 13:14:34;;;;;;;;;;;;;;;17.63;74.20;101485.16;5109071;28;19924;-72
2022/10/31 13:17:02;;;;;;;;;;;;;;;17.58;74.66;101481.84;5105982;28;19931;-71
2022/10/31 13:19:35;;;;;;;;;;;;;;;17.52;75.20;101475.00;5113034;27;19924;-70
2022/10/31 13:22:31;;;;;;;;;;;;;;;17.51;74.92;101465.28;5113525;28;20861;-70
2022/10/31 13:25:01;;;;;;;;;;;;;;;17.45;75.02;101456.75;5107266;28;19935;-69